Time;durP1;ratioP1;P1;durP2;ratioP2;P2;SDS_P1;SDS_P2;PMS_P1;PMS_P2;Temp;Humidity;BMP_temperature;BMP_pressure;BME280_temperature;BME280_humidity;BME280_pressure;Samples;Min_cycle;Max_cycle;Signal;HPM_P1;HPM_P2
2022/09/06 00:01:17;;;;;;;0.95;0.60;;;18.80;99.90;;;;;;10412296;28;20056;-63
2022/09/06 00:06:19;;;;;;;5.85;0.60;;;18.80;99.90;;;;;;10409047;28;20041;-63
2022/09/06 00:11:21;;;;;;;4.53;0.60;;;18.80;99.90;;;;;;10412268;28;20048;-64
2022/09/06 00:16:24;;;;;;;0.82;0.50;;;18.80;99.90;;;;;;10414729;28;20049;-63
2022/09/06 00:21:31;;;;;;;1.58;0.50;;;18.70;99.90;;;;;;10409967;28;20048;-64
2022/09/06 00:26:32;;;;;;;1.95;0.60;;;18.70;99.90;;;;;;10405783;28;20041;-64
2022/09/06 00:31:34;;;;;;;1.42;0.50;;;18.70;99.90;;;;;;10413814;28;20071;-64
2022/09/06 00:36:36;;;;;;;0.98;0.60;;;18.70;99.90;;;;;;10416654;28;20053;-63
2022/09/06 00:41:38;;;;;;;5.28;0.80;;;18.60;99.90;;;;;;10417038;28;20053;-64
2022/09/06 00:46:44;;;;;;;1.50;0.50;;;18.60;99.90;;;;;;10417939;28;20045;-64
2022/09/06 00:51:46;;;;;;;4.47;0.70;;;18.70;99.90;;;;;;10418532;28;20053;-64
2022/09/06 00:56:49;;;;;;;1.77;0.70;;;18.60;99.90;;;;;;10413771;28;20044;-64
2022/09/06 01:01:51;;;;;;;4.43;0.50;;;18.60;99.90;;;;;;10416263;28;20103;-63
2022/09/06 01:06:58;;;;;;;2.10;0.50;;;18.60;99.90;;;;;;10417487;28;20045;-64
2022/09/06 01:12:21;;;;;;;2.65;0.60;;;18.50;99.90;;;;;;10409682;28;20049;-64
2022/09/06 01:17:51;;;;;;;2.35;0.47;;;18.50;99.90;;;;;;10412155;28;20045;-63
2022/09/06 01:23:20;;;;;;;1.48;0.60;;;18.50;99.90;;;;;;10417494;28;20064;-59
2022/09/06 01:28:34;;;;;;;2.25;0.65;;;18.60;99.90;;;;;;10410419;28;20499;-58
2022/09/06 01:33:44;;;;;;;2.50;0.60;;;18.50;99.90;;;;;;10413890;28;20060;-58
2022/09/06 01:38:46;;;;;;;1.92;0.50;;;18.50;99.90;;;;;;10417672;28;20454;-72
2022/09/06 01:43:50;;;;;;;3.75;0.52;;;18.50;99.90;;;;;;10411917;28;20156;-65
2022/09/06 01:49:26;;;;;;;1.17;0.50;;;18.60;99.90;;;;;;10409653;28;20053;-72
2022/09/06 01:54:46;;;;;;;2.55;0.43;;;18.50;99.90;;;;;;10406628;28;20053;-69
2022/09/06 01:59:59;;;;;;;0.65;0.60;;;18.40;99.90;;;;;;10402677;28;20064;-74
2022/09/06 02:05:08;;;;;;;1.80;0.60;;;18.40;99.90;;;;;;10403902;28;20491;-61
2022/09/06 02:10:20;;;;;;;1.60;0.52;;;18.40;99.90;;;;;;10414916;28;20053;-61
2022/09/06 02:15:26;;;;;;;1.83;0.60;;;18.40;99.90;;;;;;10412616;28;20380;-60
2022/09/06 02:20:34;;;;;;;1.23;0.50;;;18.30;99.90;;;;;;10414152;28;20045;-60
2022/09/06 02:25:40;;;;;;;1.77;0.57;;;18.60;99.90;;;;;;10412689;28;20079;-62
2022/09/06 02:30:46;;;;;;;5.95;0.60;;;19.00;99.90;;;;;;10406834;28;20045;-59
2022/09/06 02:35:52;;;;;;;3.23;0.60;;;19.20;99.90;;;;;;10413200;28;20106;-63
2022/09/06 02:40:55;;;;;;;2.10;0.40;;;19.30;99.90;;;;;;10410725;28;20288;-61
2022/09/06 02:45:57;;;;;;;3.42;0.73;;;19.40;99.90;;;;;;10408349;28;20050;-58
2022/09/06 02:51:07;;;;;;;1.00;0.57;;;19.50;99.90;;;;;;10409995;28;20041;-61
2022/09/06 02:56:09;;;;;;;1.60;0.50;;;19.50;99.90;;;;;;10411204;28;20482;-61
2022/09/06 03:01:11;;;;;;;3.17;0.50;;;19.60;99.90;;;;;;10410640;28;20052;-59
2022/09/06 03:06:13;;;;;;;1.92;0.50;;;19.80;99.90;;;;;;10417337;28;20136;-58
2022/09/06 03:11:14;;;;;;;2.67;0.60;;;19.80;99.90;;;;;;10415078;28;20596;-61
2022/09/06 03:16:16;;;;;;;2.05;0.65;;;19.80;99.90;;;;;;10408156;28;20152;-59
2022/09/06 03:21:18;;;;;;;2.03;0.88;;;19.80;99.90;;;;;;10413823;28;20525;-58
2022/09/06 03:26:20;;;;;;;1.02;0.50;;;19.80;99.90;;;;;;10410607;28;20049;-61
2022/09/06 03:31:21;;;;;;;4.30;1.00;;;19.80;99.90;;;;;;10391965;28;20494;-59
2022/09/06 03:36:23;;;;;;;1.52;0.45;;;19.80;99.90;;;;;;10410758;28;20123;-59
2022/09/06 03:41:25;;;;;;;4.57;0.73;;;19.80;99.90;;;;;;10409838;28;20108;-60
2022/09/06 03:46:29;;;;;;;1.48;0.50;;;19.70;99.90;;;;;;10406048;28;20139;-62
2022/09/06 03:51:31;;;;;;;4.55;0.57;;;19.60;99.90;;;;;;10412057;28;20481;-61
2022/09/06 03:56:32;;;;;;;1.60;0.60;;;19.60;99.90;;;;;;10399372;28;20045;-61
2022/09/06 04:01:34;;;;;;;2.10;0.47;;;19.50;99.90;;;;;;10409390;28;20056;-61
2022/09/06 04:06:36;;;;;;;0.57;0.55;;;19.50;99.90;;;;;;10414950;28;20080;-62
2022/09/06 04:11:37;;;;;;;0.88;0.70;;;19.50;99.90;;;;;;10416857;28;20052;-61
2022/09/06 04:16:39;;;;;;;3.30;0.65;;;19.40;99.90;;;;;;10418549;28;20041;-61
2022/09/06 04:21:41;;;;;;;0.93;0.63;;;19.40;99.90;;;;;;10416644;28;20046;-61
2022/09/06 04:26:43;;;;;;;2.15;0.55;;;19.40;99.90;;;;;;10413610;28;20057;-60
2022/09/06 04:31:44;;;;;;;2.53;0.80;;;19.30;99.90;;;;;;10414452;28;20046;-61
2022/09/06 04:36:46;;;;;;;1.40;0.60;;;19.30;99.90;;;;;;10415623;28;20076;-61
2022/09/06 04:41:49;;;;;;;8.60;0.63;;;19.30;99.90;;;;;;10408545;28;20037;-61
2022/09/06 04:47:06;;;;;;;5.13;0.50;;;19.30;99.90;;;;;;10412641;28;20049;-60
2022/09/06 04:52:11;;;;;;;1.95;0.88;;;19.30;99.90;;;;;;10412598;28;20499;-61
2022/09/06 04:57:13;;;;;;;1.33;0.57;;;19.20;99.90;;;;;;10355649;28;20396;-62
2022/09/06 05:02:14;;;;;;;2.47;0.80;;;19.10;99.90;;;;;;10373166;28;20443;-62
2022/09/06 05:07:16;;;;;;;3.20;0.60;;;19.00;99.90;;;;;;10375411;28;20060;-61
2022/09/06 05:12:42;;;;;;;5.25;0.70;;;19.00;99.90;;;;;;10374770;28;20038;-60
2022/09/06 05:17:45;;;;;;;1.80;0.50;;;18.90;99.90;;;;;;10373267;28;20827;-61
2022/09/06 05:22:55;;;;;;;6.10;0.50;;;18.80;99.90;;;;;;10374572;28;20080;-61
2022/09/06 05:27:57;;;;;;;4.20;0.70;;;18.70;99.90;;;;;;10377381;28;20042;-62
2022/09/06 05:32:59;;;;;;;2.13;0.70;;;18.60;99.90;;;;;;10376358;28;20440;-61
2022/09/06 05:38:00;;;;;;;2.97;0.80;;;18.50;99.90;;;;;;10368524;28;20408;-61
2022/09/06 05:43:02;;;;;;;1.20;0.80;;;18.50;99.90;;;;;;10371169;28;20053;-62
2022/09/06 05:48:04;;;;;;;5.75;0.98;;;18.50;99.90;;;;;;10380297;28;20061;-62
2022/09/06 05:53:06;;;;;;;1.45;0.75;;;18.50;99.90;;;;;;10372352;28;20050;-61
2022/09/06 05:58:07;;;;;;;2.03;0.80;;;18.50;99.90;;;;;;10390805;28;20061;-63
2022/09/06 06:03:09;;;;;;;3.92;0.75;;;18.60;99.90;;;;;;10374416;28;20483;-61
2022/09/06 06:08:11;;;;;;;4.15;0.70;;;18.70;99.90;;;;;;10372140;28;20045;-61
2022/09/06 06:13:12;;;;;;;3.83;0.88;;;18.80;99.90;;;;;;10378809;28;20545;-62
2022/09/06 06:18:14;;;;;;;3.60;0.65;;;18.90;99.90;;;;;;10371405;28;20057;-62
2022/09/06 06:23:16;;;;;;;3.15;0.80;;;19.10;99.90;;;;;;10370676;28;20655;-62
2022/09/06 06:28:17;;;;;;;5.75;0.88;;;19.20;99.90;;;;;;10375747;28;20056;-60
2022/09/06 06:33:19;;;;;;;2.55;0.90;;;19.40;99.90;;;;;;10373604;28;20044;-60
2022/09/06 06:38:21;;;;;;;2.53;0.85;;;19.50;99.90;;;;;;10366430;28;20053;-60
2022/09/06 06:43:23;;;;;;;3.78;0.73;;;19.70;99.90;;;;;;10368211;28;20041;-60
2022/09/06 06:48:24;;;;;;;1.80;0.50;;;19.80;99.90;;;;;;10375992;28;20049;-60
2022/09/06 06:53:26;;;;;;;4.60;1.00;;;20.00;99.90;;;;;;10374832;28;20052;-61
2022/09/06 06:58:29;;;;;;;5.93;1.25;;;20.10;99.90;;;;;;10406291;28;20048;-61
2022/09/06 07:03:31;;;;;;;7.43;1.00;;;20.30;99.90;;;;;;10411968;28;20048;-60
2022/09/06 07:08:35;;;;;;;1.23;0.82;;;20.40;99.90;;;;;;10417096;28;20053;-60
2022/09/06 07:13:37;;;;;;;1.13;0.73;;;20.60;99.90;;;;;;10406218;28;20624;-59
2022/09/06 07:18:41;;;;;;;3.17;0.75;;;20.70;99.90;;;;;;10399495;28;20470;-60
2022/09/06 07:23:43;;;;;;;2.53;0.65;;;20.90;99.90;;;;;;10414738;28;20049;-58
2022/09/06 07:29:05;;;;;;;5.75;0.88;;;21.10;99.90;;;;;;10411565;28;20084;-61
2022/09/06 07:34:07;;;;;;;3.00;0.93;;;21.30;99.90;;;;;;10407206;28;20087;-61
2022/09/06 07:39:09;;;;;;;4.35;0.80;;;21.50;99.90;;;;;;10413778;28;20045;-61
2022/09/06 07:44:10;;;;;;;7.30;0.70;;;21.60;99.90;;;;;;10413938;28;20053;-62
2022/09/06 07:49:12;;;;;;;3.80;1.20;;;21.80;99.90;;;;;;10420492;28;20045;-60
2022/09/06 07:54:15;;;;;;;3.92;0.93;;;21.80;99.90;;;;;;10416389;28;20447;-61
2022/09/06 07:59:32;;;;;;;1.77;0.73;;;22.00;99.90;;;;;;10412207;28;20104;-61
2022/09/06 08:04:34;;;;;;;2.65;0.90;;;22.10;99.90;;;;;;10414965;28;20053;-61
2022/09/06 08:09:35;;;;;;;3.08;0.70;;;22.30;99.90;;;;;;10419086;28;20545;-60
2022/09/06 08:14:37;;;;;;;4.60;0.70;;;22.40;99.90;;;;;;10418898;28;20038;-61
2022/09/06 08:19:39;;;;;;;1.77;0.80;;;22.60;99.90;;;;;;10407667;28;20457;-60
2022/09/06 08:24:41;;;;;;;3.47;0.57;;;22.70;99.90;;;;;;10415037;28;20103;-62
2022/09/06 08:29:42;;;;;;;1.52;0.65;;;22.80;99.90;;;;;;10401074;28;20045;-62
2022/09/06 08:34:44;;;;;;;2.47;0.60;;;22.90;99.90;;;;;;10418170;28;20114;-63
2022/09/06 08:39:46;;;;;;;3.72;0.70;;;22.90;99.90;;;;;;10414297;28;20052;-62
2022/09/06 08:44:51;;;;;;;3.90;0.70;;;23.00;99.90;;;;;;10416046;28;20132;-62
2022/09/06 08:50:05;;;;;;;3.33;0.60;;;23.20;99.90;;;;;;10422336;28;20059;-67
2022/09/06 08:55:36;;;;;;;7.75;0.98;;;23.30;99.90;;;;;;10419931;28;20049;-71
2022/09/06 09:00:40;;;;;;;2.35;0.60;;;23.50;99.90;;;;;;10398819;28;20053;-65
2022/09/06 09:05:45;;;;;;;9.30;0.75;;;23.70;99.90;;;;;;10418344;28;20107;-68
2022/09/06 09:10:50;;;;;;;1.27;0.50;;;23.70;99.90;;;;;;10416762;28;20052;-68
2022/09/06 09:15:52;;;;;;;1.40;0.50;;;24.00;99.90;;;;;;10411766;28;20042;-68
2022/09/06 09:20:55;;;;;;;3.05;0.60;;;24.10;99.90;;;;;;10414410;28;20080;-67
2022/09/06 09:26:04;;;;;;;1.55;0.43;;;24.30;99.90;;;;;;10403260;28;20048;-70
2022/09/06 09:31:05;;;;;;;1.13;0.47;;;24.40;99.90;;;;;;10417231;28;20053;-63
2022/09/06 09:36:11;;;;;;;5.45;0.55;;;24.40;99.90;;;;;;10408174;28;20045;-64
2022/09/06 09:41:32;;;;;;;4.23;0.80;;;24.60;99.90;;;;;;10412358;28;20570;-64
2022/09/06 09:46:36;;;;;;;0.73;0.40;;;24.90;99.90;;;;;;10408451;28;20041;-60
2022/09/06 09:52:02;;;;;;;5.78;0.50;;;25.00;99.90;;;;;;10406971;28;20041;-60
2022/09/06 09:57:09;;;;;;;3.75;0.40;;;25.00;99.90;;;;;;10411061;28;20506;-60
2022/09/06 10:02:32;;;;;;;1.73;0.40;;;25.10;99.90;;;;;;10414220;28;20061;-61
2022/09/06 10:07:40;;;;;;;7.28;2.58;;;25.30;99.70;;;;;;10409184;28;20048;-60
2022/09/06 10:12:42;;;;;;;2.15;0.40;;;25.60;99.30;;;;;;10417139;28;20048;-60
2022/09/06 10:17:48;;;;;;;1.88;0.30;;;25.60;99.20;;;;;;10397941;28;20048;-61
2022/09/06 10:23:06;;;;;;;2.95;0.40;;;25.90;98.70;;;;;;10410451;28;20053;-60
2022/09/06 10:28:28;;;;;;;3.85;0.40;;;25.90;98.60;;;;;;10414649;28;20129;-57
2022/09/06 10:33:59;;;;;;;0.95;0.40;;;26.20;98.00;;;;;;10412599;28;20075;-60
2022/09/06 10:39:37;;;;;;;2.95;0.38;;;26.50;97.30;;;;;;10396179;28;20538;-59
2022/09/06 10:45:20;;;;;;;1.45;0.40;;;26.70;97.00;;;;;;10370960;28;20049;-58
2022/09/06 10:50:46;;;;;;;1.50;0.47;;;26.90;96.60;;;;;;10373426;28;20049;-60
2022/09/06 10:56:01;;;;;;;3.08;0.45;;;27.10;96.30;;;;;;10402338;28;20691;-61
2022/09/06 11:01:06;;;;;;;1.33;0.43;;;27.10;96.10;;;;;;10409187;28;20564;-60
2022/09/06 11:06:10;;;;;;;3.25;0.68;;;27.00;95.60;;;;;;10410746;28;20049;-60
2022/09/06 11:11:43;;;;;;;2.85;0.40;;;27.20;95.60;;;;;;10411361;28;20053;-61
2022/09/06 11:16:52;;;;;;;0.55;0.30;;;27.50;95.70;;;;;;10410070;28;20057;-60
2022/09/06 11:22:10;;;;;;;3.30;0.40;;;27.60;94.00;;;;;;10410407;28;20441;-60
2022/09/06 11:27:18;;;;;;;1.00;0.30;;;27.60;94.60;;;;;;10416202;28;20042;-61
2022/09/06 11:32:57;;;;;;;2.22;0.30;;;27.60;94.40;;;;;;10412276;28;20057;-59
2022/09/06 11:38:03;;;;;;;0.60;0.30;;;27.70;93.50;;;;;;10403463;28;20107;-60
2022/09/06 11:43:04;;;;;;;1.05;0.30;;;27.80;93.70;;;;;;10413524;28;20049;-61
2022/09/06 11:48:58;;;;;;;1.35;0.30;;;28.10;92.80;;;;;;10415235;28;20053;-60
2022/09/06 11:54:15;;;;;;;1.77;0.25;;;28.10;91.60;;;;;;10409906;28;20099;-60
2022/09/06 11:59:23;;;;;;;2.72;0.30;;;28.20;91.70;;;;;;10412026;28;20072;-60
2022/09/06 12:05:00;;;;;;;0.77;0.30;;;28.40;90.60;;;;;;10410718;28;20056;-60
2022/09/06 12:10:29;;;;;;;1.52;0.30;;;28.50;91.40;;;;;;10409486;28;20041;-59
2022/09/06 12:15:50;;;;;;;2.22;0.20;;;28.80;91.10;;;;;;10401932;28;20044;-59
2022/09/06 12:20:53;;;;;;;1.33;0.20;;;28.90;90.90;;;;;;10399673;28;20041;-58
2022/09/06 12:25:55;;;;;;;1.48;0.30;;;28.90;90.00;;;;;;10414142;28;20053;-59
2022/09/06 12:30:57;;;;;;;0.75;0.40;;;29.00;90.40;;;;;;10403395;28;20129;-59
2022/09/06 12:36:21;;;;;;;1.55;0.30;;;29.20;90.20;;;;;;10416270;28;20045;-59
2022/09/06 12:41:25;;;;;;;1.25;0.30;;;29.00;89.90;;;;;;10414209;28;20061;-60
2022/09/06 12:46:28;;;;;;;2.47;0.43;;;29.10;89.40;;;;;;10397569;28;20052;-58
2022/09/06 12:51:30;;;;;;;5.88;0.20;;;29.30;88.50;;;;;;10417055;28;20147;-59
2022/09/06 12:56:33;;;;;;;0.30;0.20;;;29.30;86.90;;;;;;10412757;28;20053;-60
2022/09/06 13:01:36;;;;;;;3.22;0.45;;;29.50;89.70;;;;;;10412550;28;20044;-60
2022/09/06 13:06:44;;;;;;;3.83;0.40;;;29.50;89.40;;;;;;10416940;28;20699;-59
2022/09/06 13:11:50;;;;;;;3.78;0.30;;;29.50;87.40;;;;;;10411973;28;20103;-60
2022/09/06 13:16:56;;;;;;;4.30;0.40;;;29.60;87.90;;;;;;10417127;28;20162;-60
2022/09/06 13:21:59;;;;;;;0.68;0.20;;;29.80;87.50;;;;;;10415156;28;20045;-60
2022/09/06 13:27:29;;;;;;;4.00;0.40;;;29.90;87.30;;;;;;10414494;28;20041;-59
2022/09/06 13:32:31;;;;;;;5.43;0.40;;;30.00;86.60;;;;;;10417021;28;20041;-61
2022/09/06 13:37:35;;;;;;;0.30;0.20;;;30.10;85.20;;;;;;10409500;28;20049;-60
2022/09/06 13:42:37;;;;;;;2.55;0.30;;;30.20;84.00;;;;;;10420742;28;20506;-60
2022/09/06 13:47:38;;;;;;;1.77;0.70;;;30.10;83.50;;;;;;10399776;28;20103;-60
2022/09/06 13:52:40;;;;;;;3.78;0.30;;;30.20;83.60;;;;;;10413296;28;20056;-60
2022/09/06 13:57:42;;;;;;;0.40;0.20;;;30.20;83.10;;;;;;10412726;28;20060;-60
2022/09/06 14:02:45;;;;;;;2.55;0.38;;;30.50;82.60;;;;;;10406908;28;20054;-59
2022/09/06 14:07:47;;;;;;;1.40;0.40;;;30.80;83.10;;;;;;10412566;28;20053;-60
2022/09/06 14:12:49;;;;;;;1.73;0.25;;;30.90;79.80;;;;;;10414412;28;20476;-62
2022/09/06 14:17:51;;;;;;;2.75;0.28;;;31.20;79.40;;;;;;10413214;28;20491;-60
2022/09/06 14:22:52;;;;;;;0.55;0.32;;;31.50;78.60;;;;;;10410781;28;20052;-62
2022/09/06 14:27:54;;;;;;;2.28;0.50;;;31.40;78.40;;;;;;10414891;28;20053;-59
2022/09/06 14:32:56;;;;;;;6.03;0.40;;;31.80;78.10;;;;;;10413327;28;20099;-59
2022/09/06 14:37:58;;;;;;;3.08;0.40;;;31.80;76.80;;;;;;10396732;28;20060;-60
2022/09/06 14:42:59;;;;;;;1.20;0.22;;;31.90;76.40;;;;;;10410663;28;20048;-59
2022/09/06 14:48:02;;;;;;;4.25;0.30;;;32.60;75.80;;;;;;10403157;28;20439;-59
2022/09/06 14:53:04;;;;;;;0.82;0.30;;;32.60;76.00;;;;;;10409206;28;20440;-59
2022/09/06 14:58:24;;;;;;;1.42;0.28;;;32.80;74.40;;;;;;10394166;28;20045;-59
2022/09/06 15:03:26;;;;;;;0.88;0.40;;;32.30;74.90;;;;;;10411409;28;20099;-59
2022/09/06 15:08:28;;;;;;;2.20;0.50;;;32.40;74.30;;;;;;10406782;28;20045;-62
2022/09/06 15:13:30;;;;;;;2.35;0.68;;;31.70;74.20;;;;;;10403876;28;20038;-60
2022/09/06 15:18:32;;;;;;;3.95;0.38;;;31.30;75.50;;;;;;10407531;28;20041;-62
2022/09/06 15:23:34;;;;;;;1.25;0.38;;;30.80;76.80;;;;;;10404540;28;20060;-61
2022/09/06 15:28:37;;;;;;;1.92;0.30;;;30.60;76.90;;;;;;10405068;28;20045;-61
2022/09/06 15:33:40;;;;;;;3.85;0.70;;;30.30;76.90;;;;;;10409374;28;20049;-61
2022/09/06 15:38:45;;;;;;;1.05;0.35;;;30.00;78.30;;;;;;10410808;28;20048;-62
2022/09/06 15:43:49;;;;;;;1.65;0.75;;;29.80;78.60;;;;;;10412740;28;20056;-63
2022/09/06 15:48:52;;;;;;;2.25;0.45;;;29.70;79.10;;;;;;10403616;28;20157;-62
2022/09/06 15:53:54;;;;;;;0.70;0.30;;;29.40;80.00;;;;;;10409306;28;20050;-60
2022/09/06 15:58:56;;;;;;;1.17;0.40;;;29.30;79.40;;;;;;10413660;28;20056;-61
2022/09/06 16:04:02;;;;;;;3.40;0.40;;;29.10;79.40;;;;;;10413343;28;20057;-60
2022/09/06 16:09:12;;;;;;;1.73;0.40;;;29.00;79.90;;;;;;10415626;28;20072;-61
2022/09/06 16:14:15;;;;;;;4.05;0.40;;;28.90;80.30;;;;;;10414766;28;20618;-61
2022/09/06 16:19:16;;;;;;;0.63;0.20;;;28.80;81.00;;;;;;10412754;28;20107;-61
2022/09/06 16:24:20;;;;;;;2.58;0.30;;;28.60;81.80;;;;;;10416615;28;20191;-62
2022/09/06 16:29:21;;;;;;;3.38;0.30;;;28.40;83.00;;;;;;10418922;28;20052;-62
2022/09/06 16:34:23;;;;;;;1.60;0.38;;;28.10;84.60;;;;;;10421002;28;20057;-61
2022/09/06 16:39:25;;;;;;;1.95;0.63;;;27.90;85.40;;;;;;10415244;28;20142;-60
2022/09/06 16:44:27;;;;;;;3.30;0.25;;;27.70;86.90;;;;;;10413492;28;20053;-60
2022/09/06 16:49:29;;;;;;;1.27;0.28;;;27.50;84.10;;;;;;10414486;28;20068;-60
2022/09/06 16:54:32;;;;;;;0.22;0.20;;;27.30;82.80;;;;;;10420490;28;20061;-66
2022/09/06 16:59:36;;;;;;;1.65;0.20;;;27.20;83.40;;;;;;10414620;28;20049;-66
2022/09/06 17:04:38;;;;;;;2.72;0.30;;;27.00;84.60;;;;;;10415632;28;20045;-65
2022/09/06 17:09:39;;;;;;;2.60;0.20;;;26.60;86.60;;;;;;10410474;28;20045;-64
2022/09/06 17:14:41;;;;;;;0.40;0.40;;;26.20;88.40;;;;;;10410678;28;20060;-65
2022/09/06 17:19:43;;;;;;;1.20;0.50;;;25.70;91.20;;;;;;10414231;28;20087;-65
2022/09/06 17:24:45;;;;;;;1.42;0.60;;;25.10;93.30;;;;;;10413700;28;20053;-64
2022/09/06 17:29:47;;;;;;;0.98;0.45;;;24.10;97.60;;;;;;10414224;28;20061;-66
2022/09/06 17:34:49;;;;;;;1.08;0.40;;;23.40;99.50;;;;;;10415070;28;20053;-64
2022/09/06 17:39:50;;;;;;;1.60;0.45;;;23.00;99.90;;;;;;10416589;28;20041;-67
2022/09/06 17:44:52;;;;;;;1.05;0.38;;;22.60;99.90;;;;;;10414831;28;20457;-65
2022/09/06 17:49:54;;;;;;;2.70;0.43;;;22.30;99.90;;;;;;10409590;28;20061;-66
2022/09/06 17:54:55;;;;;;;1.73;0.40;;;22.00;99.90;;;;;;10410036;28;20053;-65
2022/09/06 17:59:57;;;;;;;2.25;0.40;;;21.40;99.90;;;;;;10409321;28;20073;-65
2022/09/06 18:04:59;;;;;;;2.65;0.40;;;21.00;99.90;;;;;;10413823;28;20053;-65
2022/09/06 18:10:01;;;;;;;2.15;0.50;;;20.70;99.90;;;;;;10413799;28;20683;-63
2022/09/06 18:15:02;;;;;;;2.08;0.70;;;20.60;99.90;;;;;;10404055;28;20064;-65
2022/09/06 18:20:05;;;;;;;2.00;0.40;;;20.60;99.90;;;;;;10399178;28;20056;-64
2022/09/06 18:25:07;;;;;;;1.88;0.70;;;20.60;99.90;;;;;;10413491;28;20521;-65
2022/09/06 18:30:09;;;;;;;7.45;0.90;;;20.50;99.90;;;;;;10393094;28;20103;-67
2022/09/06 18:35:15;;;;;;;2.15;0.50;;;20.30;99.90;;;;;;10412633;28;20060;-66
2022/09/06 18:40:17;;;;;;;3.65;0.50;;;20.10;99.90;;;;;;10411040;28;20049;-67
2022/09/06 18:45:18;;;;;;;2.60;0.50;;;20.00;99.90;;;;;;10405401;28;20388;-67
2022/09/06 18:50:21;;;;;;;2.50;0.40;;;19.90;99.90;;;;;;10411483;28;20111;-65
2022/09/06 18:55:23;;;;;;;1.98;0.40;;;19.60;99.90;;;;;;10408783;28;20048;-65
2022/09/06 19:00:25;;;;;;;2.08;0.40;;;19.70;99.90;;;;;;10416875;28;20048;-67
2022/09/06 19:05:27;;;;;;;0.80;0.40;;;19.60;99.90;;;;;;10417931;28;20062;-67
2022/09/06 19:10:29;;;;;;;2.97;0.52;;;19.60;99.90;;;;;;10414752;28;20513;-65
2022/09/06 19:15:30;;;;;;;3.70;0.73;;;19.50;99.90;;;;;;10410796;28;20063;-67
2022/09/06 19:20:32;;;;;;;2.22;0.40;;;19.50;99.90;;;;;;10415407;28;20044;-66
2022/09/06 19:25:34;;;;;;;3.45;0.45;;;19.40;99.90;;;;;;10414608;28;20106;-65
2022/09/06 19:30:35;;;;;;;1.17;0.40;;;19.40;99.90;;;;;;10411133;28;20073;-66
2022/09/06 19:35:37;;;;;;;4.70;0.60;;;19.30;99.90;;;;;;10408476;28;20053;-66
2022/09/06 19:41:08;;;;;;;2.88;0.50;;;19.20;99.90;;;;;;10408043;28;20057;-66
2022/09/06 19:46:10;;;;;;;1.73;0.60;;;19.20;99.90;;;;;;10420451;28;20056;-66
2022/09/06 19:51:14;;;;;;;2.15;0.60;;;19.20;99.90;;;;;;10417191;28;20053;-67
2022/09/06 19:56:18;;;;;;;1.73;0.45;;;19.10;99.90;;;;;;10418805;28;20045;-67
2022/09/06 20:01:20;;;;;;;2.78;0.60;;;19.10;99.90;;;;;;10413940;28;20053;-67
2022/09/06 20:06:23;;;;;;;1.20;0.60;;;19.10;99.90;;;;;;10414539;28;20053;-67
2022/09/06 20:11:27;;;;;;;2.60;0.60;;;19.10;99.90;;;;;;10418154;28;20114;-65
2022/09/06 20:16:29;;;;;;;2.65;0.45;;;19.00;99.90;;;;;;10419631;28;20045;-65
2022/09/06 20:21:31;;;;;;;4.70;0.60;;;18.90;99.90;;;;;;10413047;28;20068;-66
2022/09/06 20:26:33;;;;;;;3.97;0.73;;;18.90;99.90;;;;;;10411436;28;20050;-66
2022/09/06 20:31:36;;;;;;;0.80;0.60;;;18.90;99.90;;;;;;10410752;28;20577;-65
2022/09/06 20:36:38;;;;;;;2.70;0.52;;;18.80;99.90;;;;;;10408713;28;20053;-67
2022/09/06 20:41:40;;;;;;;5.22;1.13;;;18.80;99.90;;;;;;10413239;28;20061;-66
2022/09/06 20:46:41;;;;;;;1.67;0.60;;;18.80;99.90;;;;;;10409018;28;20053;-66
2022/09/06 20:51:43;;;;;;;1.98;0.50;;;18.70;99.90;;;;;;10414959;28;20451;-64
2022/09/06 20:56:45;;;;;;;2.38;0.55;;;18.70;99.90;;;;;;10422033;28;20107;-65
2022/09/06 21:01:47;;;;;;;1.23;0.43;;;18.60;99.90;;;;;;10417732;28;20049;-67
2022/09/06 21:06:49;;;;;;;2.45;0.60;;;18.60;99.90;;;;;;10416511;28;20072;-67
2022/09/06 21:11:52;;;;;;;5.88;0.95;;;18.60;99.90;;;;;;10413600;28;20098;-67
2022/09/06 21:16:53;;;;;;;6.45;1.13;;;18.60;99.90;;;;;;10413963;28;20049;-67
2022/09/06 21:21:55;;;;;;;2.80;0.50;;;18.40;99.90;;;;;;10415653;28;20111;-66
2022/09/06 21:26:56;;;;;;;3.17;0.85;;;18.50;99.90;;;;;;10417638;28;20118;-67
2022/09/06 21:31:58;;;;;;;0.93;0.55;;;18.40;99.90;;;;;;10418807;28;20060;-66
2022/09/06 21:37:00;;;;;;;0.95;0.45;;;18.30;99.90;;;;;;10421070;28;20045;-67
2022/09/06 21:42:02;;;;;;;3.13;0.60;;;18.30;99.90;;;;;;10409057;28;20454;-67
2022/09/06 21:47:04;;;;;;;3.85;0.57;;;18.20;99.90;;;;;;10407934;28;20060;-67
2022/09/06 21:52:07;;;;;;;1.17;0.93;;;18.10;99.90;;;;;;10413541;28;20059;-67
2022/09/06 21:57:09;;;;;;;1.52;0.43;;;18.00;99.90;;;;;;10414361;28;20446;-67
2022/09/06 22:02:10;;;;;;;1.33;0.35;;;17.90;99.90;;;;;;10414165;28;20061;-68
2022/09/06 22:07:12;;;;;;;1.30;0.40;;;17.90;99.90;;;;;;10412482;28;20041;-67
2022/09/06 22:12:14;;;;;;;0.90;0.60;;;17.90;99.90;;;;;;10408869;28;20071;-67
2022/09/06 22:17:15;;;;;;;0.98;0.40;;;18.00;99.90;;;;;;10413315;28;20111;-67
2022/09/06 22:22:17;;;;;;;1.52;0.50;;;18.00;99.90;;;;;;10412356;28;20549;-67
2022/09/06 22:27:19;;;;;;;0.98;0.50;;;17.90;99.90;;;;;;10409250;28;20057;-67
2022/09/06 22:32:21;;;;;;;0.80;0.40;;;17.90;99.90;;;;;;10408507;28;20053;-68
2022/09/06 22:37:23;;;;;;;1.02;0.32;;;17.80;99.90;;;;;;10905961;23;20091;-67
2022/09/06 22:42:25;;;;;;;0.55;0.32;;;17.80;99.90;;;;;;10449762;23;20086;-67
2022/09/06 22:47:27;;;;;;;0.70;0.50;;;17.80;99.90;;;;;;10661029;23;20056;-69
2022/09/06 22:52:29;;;;;;;2.70;0.40;;;17.80;99.90;;;;;;10389611;28;20041;-69
2022/09/06 22:57:30;;;;;;;0.70;0.40;;;17.70;99.90;;;;;;10408519;23;20045;-67
2022/09/06 23:02:32;;;;;;;0.65;0.30;;;17.70;99.90;;;;;;10412718;28;20482;-67
2022/09/06 23:07:34;;;;;;;2.38;0.90;;;17.70;99.90;;;;;;10415136;28;20045;-65
2022/09/06 23:12:36;;;;;;;1.73;0.50;;;17.60;99.90;;;;;;10411117;28;20080;-67
2022/09/06 23:17:38;;;;;;;0.63;0.35;;;17.70;99.90;;;;;;10414099;28;20126;-67
2022/09/06 23:22:40;;;;;;;0.70;0.30;;;17.60;99.90;;;;;;10418180;28;20041;-66
2022/09/06 23:27:42;;;;;;;0.35;0.20;;;17.50;99.90;;;;;;10415288;28;20084;-67
2022/09/06 23:32:43;;;;;;;0.40;0.30;;;17.50;99.90;;;;;;10411274;28;20454;-66
2022/09/06 23:37:48;;;;;;;0.55;0.28;;;17.50;99.90;;;;;;10415123;28;20056;-62
2022/09/06 23:42:50;;;;;;;0.22;0.20;;;17.60;99.90;;;;;;10416309;28;20107;-62
2022/09/06 23:47:52;;;;;;;0.75;0.30;;;17.60;99.90;;;;;;10414184;28;20049;-62
2022/09/06 23:52:53;;;;;;;0.73;0.30;;;17.60;99.90;;;;;;10415265;28;20049;-63
2022/09/06 23:57:55;;;;;;;0.98;0.20;;;17.60;99.90;;;;;;10417475;28;20088;-64
